Pagrindinis puslapis
METAR-TAF:

METAR-TAF

Oro uostai :

Zanjan, Iranas

platuma: 36-41N, ilguma: 048-29E, Aukštis: 1663 m

Dabartinis oras

Ataskaita buvo paskelbta 1 valandą ir 9 minutes, ne 10:00 UTC
Vėjas 8 kt iš Šiaurės Vakarų
Temperatūra 0°C
Drėgmė 69%
Slėgis 1015 hPa
Matomumas 10 km arba daugiau
Mažai debesys ne aukštis 1000 ft
Mažai debesys ne aukštis 3000 ft, Liūtiniai kamuoliniai debesys.
Išsisklaidę debesys ne aukštis 3500 ft
Su prošvaistėmis ne aukštis 9000 ft

METAR: OITZ 261000Z 31008KT 9999 FEW010 FEW030CB SCT035 BKN090 00/M05 Q1015 RESN

Laikas: 14:39 (11:09 UTC)


TAF: trūkstamas

Orai ataskaitas ir orų prognozės (METAR, TAF).

turimą stotys yra geltonos ir raudonos taškus žemėlapyje.

Perkelti pele per norėdami pamatyti stoties vardą.

Tada spustelėkite, norėdami matyti oro stebėjimo ir prognozės.

Norėdami pakeisti žemėlapį: spustelėkite ant žalios mygtukų su juodo kryžiaus žemyn,; žalią mygtuką su brūkšneliu, jei norite nutolinti; arba žalių rodyklių gretimoms žemėlapius.


METAR-TAF: